»·PEaware :: ASA821 KGEG-KPDX

ASA821 :: KGEG-KPDX

FLIGHT INFORMATION

Flight Status: Arrived
Operator:
Alaska Airlines
More flights by this operator :: More flights under this callsign
Pilot: Andre N. (13929)
Aircraft: BOEING 737-800
(B738)
More flights by this aircraft type
Origin: KGEG Spokane Intl
United States
Destination: KPDX Portland Intl
United States
More flights between these airports :: More routes between these airports
Route: GEG3 ZEGRO YENTL HHOOD4
File this flight plan on PilotEdge
Remarks:
Altitude:
(Current/Filed)
36,000ft
Speed:
(Current/Filed)
440kts
Departed: 05-Apr-18 09:20 AM
Arrived: 05-Apr-18 10:24 AM
Distance/Time
Traveled:
242nm/1:03
Distance/Time
To Go:
Arrived

Flight Plot

Page will automatically refresh every two minutes.

Flight plan parsing failed; only flown route is shown


Map Options




Map Legend


Flown Route
Filed Route
Departure Airport
Arrival Airport
Navaid (VOR, NDB)
Fix

Horizontal Profiles

Position Reports

Time Latitude Longitude Heading Altitude Ground
Speed
05-Apr-18 08:58 47.625603 -117.534027 279 2392ft 0kts
05-Apr-18 08:59 47.625603 -117.534027 279 2392ft 0kts
05-Apr-18 09:00 47.625603 -117.534027 279 2392ft 0kts
05-Apr-18 09:01 47.625603 -117.534027 279 2392ft 0kts
05-Apr-18 09:02 47.625603 -117.534027 279 2392ft 0kts
05-Apr-18 09:03 47.625603 -117.534027 279 2392ft 0kts
05-Apr-18 09:04 47.625603 -117.534027 279 2392ft 0kts
05-Apr-18 09:05 47.625603 -117.534027 279 2392ft 0kts
05-Apr-18 09:06 47.625603 -117.534027 279 2392ft 0kts
05-Apr-18 09:07 47.625603 -117.534027 279 2392ft 0kts
05-Apr-18 09:08 47.625603 -117.534027 279 2392ft 0kts
05-Apr-18 09:09 47.625658 -117.533320 200 2392ft 2kts
05-Apr-18 09:10 47.626018 -117.533637 137 2392ft 0kts
05-Apr-18 09:11 47.626018 -117.533637 137 2392ft 0kts
05-Apr-18 09:12 47.626018 -117.533637 137 2392ft 0kts
05-Apr-18 09:13 47.623492 -117.533923 225 2392ft 18kts
05-Apr-18 09:14 47.621123 -117.537500 225 2392ft 11kts
05-Apr-18 09:15 47.615993 -117.545238 225 2392ft 28kts
05-Apr-18 09:16 47.611671 -117.551622 199 2392ft 0kts
05-Apr-18 09:17 47.611671 -117.551622 199 2392ft 0kts
05-Apr-18 09:18 47.610685 -117.550661 134 2392ft 14kts
05-Apr-18 09:19 47.624329 -117.528533 45 3189ft 151kts
05-Apr-18 09:20 47.660134 -117.483761 39 6166ft 186kts
05-Apr-18 09:21 47.707919 -117.426375 38 8937ft 251kts
05-Apr-18 09:22 47.760112 -117.358177 58 11948ft 262kts
05-Apr-18 09:23 47.733216 -117.258609 152 13565ft 351kts
05-Apr-18 09:24 47.644531 -117.280461 228 14990ft 321kts
05-Apr-18 09:25 47.601403 -117.391980 244 16022ft 318kts
05-Apr-18 09:26 47.560767 -117.509818 244 19392ft 331kts
05-Apr-18 09:27 47.518137 -117.632873 245 22289ft 345kts
05-Apr-18 09:28 47.475813 -117.754199 244 24715ft 358kts
05-Apr-18 09:29 47.423677 -117.881108 236 27033ft 372kts
05-Apr-18 09:30 47.360481 -118.003050 236 29050ft 384kts
05-Apr-18 09:31 47.295737 -118.126317 236 31381ft 379kts
05-Apr-18 09:32 47.233153 -118.245619 237 33630ft 367kts
05-Apr-18 09:33 47.174079 -118.358487 237 35417ft 360kts
05-Apr-18 09:34 47.112800 -118.476047 237 36056ft 380kts
05-Apr-18 09:35 47.047193 -118.602151 237 36042ft 397kts
05-Apr-18 09:36 46.986411 -118.718910 236 36050ft 398kts
05-Apr-18 09:37 46.919947 -118.846935 236 36049ft 397kts
05-Apr-18 09:38 46.858243 -118.966105 237 36049ft 397kts
05-Apr-18 09:39 46.792668 -119.093031 237 36047ft 397kts
05-Apr-18 09:40 46.726653 -119.221088 237 36046ft 396kts
05-Apr-18 09:41 46.661195 -119.348342 237 36045ft 396kts
05-Apr-18 09:42 46.596030 -119.475306 237 36043ft 396kts
05-Apr-18 09:43 46.531033 -119.602220 237 36042ft 396kts
05-Apr-18 09:44 46.468614 -119.724203 236 35847ft 400kts
05-Apr-18 09:45 46.406226 -119.846421 236 34047ft 396kts
05-Apr-18 09:46 46.340924 -119.974767 236 32297ft 405kts
05-Apr-18 09:47 46.274039 -120.106514 236 30523ft 413kts
05-Apr-18 09:48 46.205999 -120.240875 235 28667ft 414kts
05-Apr-18 09:49 46.138279 -120.374798 234 26634ft 420kts
05-Apr-18 09:50 46.071375 -120.507352 234 24484ft 391kts
05-Apr-18 09:51 46.012546 -120.624022 235 23142ft 343kts
05-Apr-18 09:52 45.959063 -120.730224 234 21774ft 337kts
05-Apr-18 09:53 45.917050 -120.813843 234 20735ft 332kts
05-Apr-18 09:54 45.870212 -120.907270 234 19601ft 328kts
05-Apr-18 09:55 45.820374 -121.006862 234 18445ft 323kts
05-Apr-18 09:56 45.771671 -121.104355 234 17324ft 318kts
05-Apr-18 09:57 45.721533 -121.204874 234 16140ft 311kts
05-Apr-18 09:58 45.672167 -121.303998 234 14945ft 305kts
05-Apr-18 09:59 45.625593 -121.397650 234 13782ft 277kts
05-Apr-18 10:00 45.591739 -121.493698 246 12780ft 272kts
05-Apr-18 10:01 45.564074 -121.592558 246 11778ft 268kts
05-Apr-18 10:02 45.538411 -121.683890 245 10895ft 264kts
05-Apr-18 10:03 45.530208 -121.778759 270 10164ft 269kts
05-Apr-18 10:04 45.534421 -121.884988 271 9955ft 262kts
05-Apr-18 10:05 45.540451 -121.982243 286 9979ft 248kts
05-Apr-18 10:06 45.560529 -122.073416 287 9975ft 251kts
05-Apr-18 10:07 45.581651 -122.171815 284 9973ft 262kts
05-Apr-18 10:08 45.602301 -122.269572 280 9723ft 250kts
05-Apr-18 10:09 45.621204 -122.360125 280 9029ft 232kts
05-Apr-18 10:10 45.639302 -122.447712 280 8315ft 233kts
05-Apr-18 10:11 45.665869 -122.532106 296 7003ft 237kts
05-Apr-18 10:12 45.696624 -122.614194 298 5645ft 239kts
05-Apr-18 10:13 45.726253 -122.693540 297 4951ft 221kts
05-Apr-18 10:14 45.754312 -122.768767 297 4330ft 210kts
05-Apr-18 10:15 45.774207 -122.842101 248 3986ft 199kts
05-Apr-18 10:16 45.734917 -122.891329 204 3968ft 189kts
05-Apr-18 10:17 45.696270 -122.856289 120 3534ft 183kts
05-Apr-18 10:18 45.671969 -122.794551 119 2965ft 173kts
05-Apr-18 10:19 45.648754 -122.734425 118 2228ft 175kts
05-Apr-18 10:20 45.627783 -122.680317 118 1397ft 139kts
05-Apr-18 10:21 45.609941 -122.634242 118 694ft 133kts
05-Apr-18 10:22 45.592721 -122.590253 117 40ft 128kts
05-Apr-18 10:23 45.586418 -122.576333 202 37ft 0kts
05-Apr-18 10:24 45.586498 -122.577511 298 37ft 8kts
05-Apr-18 10:25 45.589483 -122.585178 298 37ft 28kts
05-Apr-18 10:26 45.593486 -122.595445 297 37ft 22kts
05-Apr-18 10:27 45.590626 -122.601218 208 37ft 19kts

Navigation Log

Ident Type
Flight plan parsing failed, navigation log unavailable